createdAt,value
2019-01-14T00:03:38.565Z,98795.95
2019-01-14T00:07:45.570Z,98778.00
2019-01-14T00:11:53.146Z,98790.48
2019-01-14T00:15:59.996Z,98788.77
2019-01-14T00:20:08.013Z,98798.72
2019-01-14T00:24:15.137Z,98811.03
2019-01-14T00:28:22.131Z,98824.80
2019-01-14T00:32:29.013Z,98846.00
2019-01-14T00:36:35.977Z,98831.54
2019-01-14T00:40:45.796Z,98837.39
2019-01-14T00:44:52.992Z,98835.99
2019-01-14T00:49:00.085Z,98842.75
2019-01-14T00:53:07.074Z,98841.80
2019-01-14T00:57:15.885Z,98863.17
2019-01-14T01:01:22.998Z,98881.17
2019-01-14T01:05:30.196Z,98873.68
2019-01-14T01:09:37.282Z,98875.66
2019-01-14T01:13:44.263Z,98881.39
2019-01-14T01:17:52.192Z,98885.48
2019-01-14T01:22:01.499Z,98874.41
2019-01-14T01:26:08.701Z,98882.30
2019-01-14T01:30:18.735Z,98896.95
2019-01-14T01:34:25.854Z,98907.12
2019-01-14T01:38:32.821Z,98918.81
2019-01-14T01:42:39.855Z,98921.73
2019-01-14T01:46:46.773Z,98935.98
2019-01-14T01:50:53.752Z,98948.14
2019-01-14T01:55:04.746Z,98948.69
2019-01-14T01:59:11.941Z,98961.02
2019-01-14T02:03:18.864Z,98972.92
2019-01-14T02:07:25.939Z,98981.06
2019-01-14T02:11:32.830Z,98985.66
2019-01-14T02:15:39.669Z,98992.81
2019-01-14T02:19:46.607Z,98996.62
2019-01-14T02:23:53.684Z,98989.97
2019-01-14T02:28:01.629Z,98997.80
2019-01-14T02:32:08.544Z,99001.84
2019-01-14T02:36:15.568Z,99001.77
2019-01-14T02:40:23.884Z,98988.77
2019-01-14T02:44:30.914Z,98996.51
2019-01-14T02:48:37.846Z,98995.25
2019-01-14T02:52:44.793Z,99001.77
2019-01-14T02:56:51.947Z,98998.02
2019-01-14T03:00:58.771Z,99004.63
2019-01-14T03:05:06.444Z,99010.22
2019-01-14T03:09:13.471Z,99008.16
2019-01-14T03:13:20.836Z,99022.97
2019-01-14T03:17:27.942Z,99018.76
2019-01-14T03:21:34.965Z,99019.64
2019-01-14T03:25:45.305Z,99032.91
2019-01-14T03:29:53.266Z,99041.31
2019-01-14T03:34:00.391Z,99040.41
2019-01-14T03:38:07.332Z,99057.33
2019-01-14T03:42:17.521Z,99056.45
2019-01-14T03:46:26.047Z,99059.26
2019-01-14T03:50:33.039Z,99058.31
2019-01-14T03:54:40.050Z,99053.30
2019-01-14T03:58:47.074Z,99067.68
2019-01-14T04:02:54.215Z,99068.89
2019-01-14T04:07:01.073Z,99067.58
2019-01-14T04:11:08.440Z,99068.45
2019-01-14T04:15:18.686Z,99069.30
2019-01-14T04:19:25.835Z,99073.00
2019-01-14T04:23:32.992Z,99088.88
2019-01-14T04:27:40.013Z,99090.25
2019-01-14T04:31:47.211Z,99088.58
2019-01-14T04:35:54.506Z,99092.91
2019-01-14T04:40:01.603Z,99107.80
2019-01-14T04:44:08.731Z,99122.03
2019-01-14T04:48:15.691Z,99126.20
2019-01-14T04:52:22.797Z,99130.06
2019-01-14T05:00:51.808Z,99141.05
2019-01-14T05:04:59.133Z,99155.81
2019-01-14T05:09:09.579Z,99164.95
2019-01-14T05:13:16.687Z,99168.55
2019-01-14T05:17:23.816Z,99176.05
2019-01-14T05:21:30.752Z,99187.50
2019-01-14T05:25:39.480Z,99191.67
2019-01-14T05:29:46.737Z,99197.61
2019-01-14T05:34:26.436Z,99211.56
2019-01-14T05:38:33.715Z,99211.94
2019-01-14T05:42:42.801Z,99213.81
2019-01-14T05:46:50.029Z,99223.47
2019-01-14T05:50:57.151Z,99224.05
2019-01-14T05:55:05.043Z,99230.35
2019-01-14T05:59:13.842Z,99225.77
2019-01-14T06:03:23.059Z,99231.12
2019-01-14T06:07:31.121Z,99243.16
2019-01-14T06:11:40.111Z,99230.89
2019-01-14T06:15:47.317Z,99252.13
2019-01-14T06:19:54.755Z,99252.05
2019-01-14T06:24:02.946Z,99260.72
2019-01-14T06:28:09.854Z,99273.27
2019-01-14T06:32:16.810Z,99283.76
2019-01-14T06:36:23.950Z,99285.20
2019-01-14T06:40:34.385Z,99287.11
2019-01-14T06:44:41.271Z,99272.67
2019-01-14T06:48:48.395Z,99277.19
2019-01-14T06:53:00.807Z,99278.94
2019-01-14T06:57:11.363Z,99288.81
2019-01-14T07:01:21.492Z,99313.77
2019-01-14T07:05:33.720Z,99326.19
2019-01-14T07:09:40.675Z,99323.55
2019-01-14T07:13:58.408Z,99334.06
2019-01-14T07:18:05.643Z,99351.23
2019-01-14T07:22:18.283Z,99355.91
2019-01-14T07:26:25.919Z,99361.13
2019-01-14T07:30:32.972Z,99366.05
2019-01-14T07:34:40.137Z,99359.68
2019-01-14T07:38:47.259Z,99368.06
2019-01-14T07:42:54.299Z,99362.84
2019-01-14T07:47:06.574Z,99379.89
2019-01-14T07:51:41.522Z,99386.80
2019-01-14T07:55:48.719Z,99384.17
2019-01-14T07:59:55.810Z,99392.29
2019-01-14T08:04:12.572Z,99384.42
2019-01-14T08:08:27.209Z,99398.26
2019-01-14T08:12:36.958Z,99405.41
2019-01-14T08:16:48.442Z,99411.00
2019-01-14T08:20:55.709Z,99430.47
2019-01-14T08:25:05.426Z,99445.49
2019-01-14T08:29:12.899Z,99451.33
2019-01-14T08:33:27.644Z,99467.20
2019-01-14T08:37:37.915Z,99470.87
2019-01-14T08:41:59.157Z,99470.63
2019-01-14T08:46:06.191Z,99476.46
2019-01-14T08:50:21.428Z,99482.41
2019-01-14T08:54:40.753Z,99477.91
2019-01-14T08:58:51.344Z,99481.84
2019-01-14T09:03:07.429Z,99474.53
2019-01-14T09:07:18.798Z,99476.73
2019-01-14T09:11:26.634Z,99488.66
2019-01-14T09:15:48.677Z,99498.17
2019-01-14T09:19:57.967Z,99492.83
2019-01-14T09:24:05.503Z,99493.34
2019-01-14T09:28:14.480Z,99504.31
2019-01-14T09:32:21.584Z,99506.67
2019-01-14T09:36:37.038Z,99510.41
2019-01-14T09:40:46.433Z,99518.13
2019-01-14T09:44:55.985Z,99530.88
2019-01-14T09:49:03.138Z,99531.50
2019-01-14T09:53:14.711Z,99545.22
2019-01-14T09:57:20.825Z,99552.11
2019-01-14T10:01:28.116Z,99553.16
2019-01-14T10:05:38.592Z,99565.19
2019-01-14T10:09:55.475Z,99559.46
2019-01-14T10:14:25.551Z,99566.42
2019-01-14T10:18:42.405Z,99564.88
2019-01-14T10:22:53.452Z,99577.13
2019-01-14T10:27:02.506Z,99566.61
2019-01-14T10:31:19.764Z,99573.45
2019-01-14T10:35:25.564Z,99583.19
2019-01-14T10:39:33.068Z,99559.70
2019-01-14T10:43:41.807Z,99569.06
2019-01-14T10:47:50.162Z,99565.55
2019-01-14T10:52:07.483Z,99571.63
2019-01-14T10:56:20.059Z,99577.19
2019-01-14T11:00:29.953Z,99581.23
2019-01-14T11:04:47.669Z,99578.28
2019-01-14T11:09:05.739Z,99582.52
2019-01-14T11:13:19.571Z,99590.52
2019-01-14T11:17:28.115Z,99592.06
2019-01-14T11:21:35.339Z,99607.38
2019-01-14T11:25:43.860Z,99606.89
2019-01-14T11:29:54.949Z,99610.08
2019-01-14T11:34:08.366Z,99616.45
2019-01-14T11:38:42.610Z,99621.11
2019-01-14T11:43:00.889Z,99626.58
2019-01-14T11:47:16.116Z,99632.58
2019-01-14T11:51:32.177Z,99638.41
2019-01-14T11:55:59.174Z,99634.80
2019-01-14T12:00:21.374Z,99631.13
2019-01-14T12:05:12.429Z,99636.11
2019-01-14T12:10:09.780Z,99644.17
2019-01-14T12:14:40.677Z,99660.24
2019-01-14T12:19:16.205Z,99655.59
2019-01-14T12:23:48.962Z,99678.84
2019-01-14T12:28:20.530Z,99682.05
2019-01-14T12:32:37.810Z,99687.64
2019-01-14T12:36:49.953Z,99676.66
2019-01-14T12:41:18.251Z,99680.48
2019-01-14T12:45:36.269Z,99678.38
2019-01-14T12:49:48.356Z,99670.51
2019-01-14T12:54:28.341Z,99675.41
2019-01-14T12:59:30.968Z,99675.42
2019-01-14T13:03:49.108Z,99685.14
2019-01-14T13:08:33.011Z,99678.36
2019-01-14T13:12:59.865Z,99673.52
2019-01-14T13:18:05.691Z,99680.84
2019-01-14T13:28:01.261Z,99708.81
2019-01-14T13:29:41.119Z,99700.66
2019-01-14T13:32:56.766Z,99696.63
2019-01-14T13:38:08.341Z,99716.47
2019-01-14T13:43:26.618Z,99730.66
2019-01-14T13:48:13.231Z,99747.11
2019-01-14T13:53:27.506Z,99748.59
2019-01-14T13:57:46.595Z,99754.92
2019-01-14T14:02:08.617Z,99760.64
2019-01-14T14:06:31.999Z,99770.67
2019-01-14T14:11:19.092Z,99775.50
2019-01-14T14:16:21.621Z,99779.51
2019-01-14T14:21:06.929Z,99778.63
2019-01-14T14:25:46.538Z,99781.60
2019-01-14T14:30:34.324Z,99794.38
2019-01-14T14:35:05.523Z,99805.68
2019-01-14T14:39:24.210Z,99817.53
2019-01-14T14:43:30.077Z,99830.41
2019-01-14T14:47:45.736Z,99840.75
2019-01-14T14:52:01.095Z,99834.37
2019-01-14T14:56:10.332Z,99845.73
2019-01-14T15:00:22.304Z,99856.75
2019-01-14T15:04:32.728Z,99874.70
2019-01-14T15:08:41.652Z,99880.73
2019-01-14T15:12:54.829Z,99892.06
2019-01-14T15:17:04.966Z,99893.53
2019-01-14T15:21:18.008Z,99900.36
2019-01-14T15:25:29.350Z,99918.84
2019-01-14T15:29:38.001Z,99933.64
2019-01-14T15:33:45.811Z,99938.42
2019-01-14T15:37:53.849Z,99943.66
2019-01-14T15:42:08.833Z,99948.77
2019-01-14T15:46:16.808Z,99955.17
2019-01-14T15:50:24.621Z,99948.63
2019-01-14T15:54:43.767Z,99951.12
2019-01-14T15:58:51.641Z,99955.13
2019-01-14T16:02:58.988Z,99961.42
2019-01-14T16:07:15.187Z,99975.00
2019-01-14T16:11:27.973Z,99978.29
2019-01-14T16:15:37.379Z,99989.52
2019-01-14T16:19:45.241Z,99995.80
2019-01-14T16:23:59.791Z,100000.58
2019-01-14T16:28:07.064Z,100010.03
2019-01-14T16:32:24.712Z,100010.78
2019-01-14T16:36:35.423Z,100017.69
2019-01-14T16:40:53.682Z,100023.78
2019-01-14T16:45:15.284Z,100034.97
2019-01-14T16:49:30.603Z,100049.47
2019-01-14T16:53:46.089Z,100053.48
2019-01-14T16:58:01.826Z,100044.23
2019-01-14T17:02:18.175Z,100054.14
2019-01-14T17:06:43.455Z,100069.73
2019-01-14T17:11:25.629Z,100076.72
2019-01-14T17:15:38.285Z,100083.70
2019-01-14T17:19:50.763Z,100081.16
2019-01-14T17:24:12.536Z,100079.37
2019-01-14T17:28:30.384Z,100099.52
2019-01-14T17:32:41.832Z,100093.94
2019-01-14T17:36:50.766Z,100109.72
2019-01-14T17:40:59.744Z,100127.22
2019-01-14T17:45:10.835Z,100139.86
2019-01-14T17:49:27.412Z,100135.41
2019-01-14T17:53:47.072Z,100153.70
2019-01-14T17:57:56.178Z,100171.50
2019-01-14T18:02:04.652Z,100170.41
2019-01-14T18:06:27.479Z,100169.73
2019-01-14T18:10:52.108Z,100161.27
2019-01-14T18:15:02.815Z,100176.52
2019-01-14T18:19:45.412Z,100187.20
2019-01-14T18:24:03.502Z,100187.10
2019-01-14T18:28:22.521Z,100201.06
2019-01-14T18:32:38.484Z,100211.06
2019-01-14T18:37:44.377Z,100220.47
2019-01-14T18:42:04.498Z,100226.97
2019-01-14T18:46:18.372Z,100235.44
2019-01-14T18:50:30.673Z,100244.64
2019-01-14T18:55:01.265Z,100253.08
2019-01-14T18:59:21.682Z,100263.30
2019-01-14T19:03:38.522Z,100268.02
2019-01-14T19:07:46.566Z,100281.14
2019-01-14T19:11:56.695Z,100284.13
2019-01-14T19:16:04.127Z,100275.30
2019-01-14T19:20:21.977Z,100288.34
2019-01-14T19:24:42.038Z,100290.55
2019-01-14T19:28:49.408Z,100297.41
2019-01-14T19:32:56.292Z,100297.05
2019-01-14T19:37:08.440Z,100306.73
2019-01-14T19:41:15.357Z,100319.20
2019-01-14T19:45:23.471Z,100328.58
2019-01-14T19:49:30.544Z,100330.56
2019-01-14T19:53:37.563Z,100344.86
2019-01-14T19:57:44.834Z,100351.39
2019-01-14T20:01:51.955Z,100351.98
2019-01-14T20:05:59.038Z,100355.97
2019-01-14T20:10:08.734Z,100358.81
2019-01-14T20:14:15.697Z,100356.50
2019-01-14T20:18:24.077Z,100361.25
2019-01-14T20:22:31.547Z,100360.28
2019-01-14T20:26:40.513Z,100370.13
2019-01-14T20:30:50.608Z,100367.95
2019-01-14T20:34:57.847Z,100380.63
2019-01-14T20:39:09.547Z,100382.53
2019-01-14T20:43:25.249Z,100383.98
2019-01-14T20:47:32.673Z,100386.51
2019-01-14T20:51:39.892Z,100388.67
2019-01-14T20:55:47.434Z,100390.84
2019-01-14T20:59:56.516Z,100383.77
2019-01-14T21:04:06.811Z,100384.30
2019-01-14T21:08:14.004Z,100388.77
2019-01-14T21:12:21.994Z,100380.33
2019-01-14T21:16:29.055Z,100394.45
2019-01-14T21:20:36.109Z,100407.03
2019-01-14T21:24:43.254Z,100410.32
2019-01-14T21:28:50.312Z,100417.18
2019-01-14T21:32:57.651Z,100419.80
2019-01-14T21:37:06.475Z,100418.03
2019-01-14T21:41:17.744Z,100422.14
2019-01-14T21:45:39.898Z,100414.14
2019-01-14T21:50:16.888Z,100422.61
2019-01-14T21:54:33.552Z,100420.91
2019-01-14T21:58:44.954Z,100421.67
2019-01-14T22:03:10.177Z,100420.56
2019-01-14T22:07:22.955Z,100425.11
2019-01-14T22:11:38.284Z,100433.71
2019-01-14T22:15:41.651Z,100447.07
2019-01-14T22:19:52.793Z,100454.69
2019-01-14T22:23:59.744Z,100470.23
2019-01-14T22:28:06.713Z,100476.53
2019-01-14T22:32:14.018Z,100482.97
2019-01-14T22:36:21.121Z,100474.91
2019-01-14T22:40:28.196Z,100480.22
2019-01-14T22:44:35.163Z,100475.14
2019-01-14T22:48:42.169Z,100478.13
2019-01-14T22:52:49.674Z,100473.59
2019-01-14T22:56:56.946Z,100477.06
2019-01-14T23:01:46.671Z,100476.05
2019-01-14T23:05:54.844Z,100482.73
2019-01-14T23:10:02.003Z,100481.91
2019-01-14T23:14:09.068Z,100486.14
2019-01-14T23:18:16.323Z,100486.28
2019-01-14T23:22:23.227Z,100486.20
2019-01-14T23:26:30.257Z,100490.89
2019-01-14T23:30:37.534Z,100499.13
2019-01-14T23:34:44.661Z,100507.73
2019-01-14T23:38:51.861Z,100501.03
2019-01-14T23:43:02.526Z,100499.89
2019-01-14T23:47:09.896Z,100508.11
2019-01-14T23:51:16.902Z,100516.51
2019-01-14T23:55:24.168Z,100520.20
2019-01-14T23:59:31.140Z,100517.95
